createdAt,value
2022-11-21T00:27:44.862Z,4.69
2022-11-21T00:57:49.066Z,4.92
2022-11-21T01:27:53.235Z,4.82
2022-11-21T01:57:57.611Z,4.68
2022-11-21T02:28:04.315Z,4.79
2022-11-21T02:58:08.515Z,5.01
2022-11-21T03:28:12.877Z,4.86
2022-11-21T03:58:17.047Z,4.82
2022-11-21T04:28:23.195Z,4.91
2022-11-21T04:58:27.335Z,5.22
2022-11-21T05:28:31.505Z,5.02
2022-11-21T05:58:35.844Z,5.11
2022-11-21T06:28:41.184Z,4.71
2022-11-21T06:58:45.434Z,4.79
2022-11-21T07:28:49.772Z,4.85
2022-11-21T07:58:54.309Z,5.09
2022-11-21T08:29:00.018Z,5.23
2022-11-21T08:59:04.684Z,5.22
2022-11-21T09:29:11.006Z,9.43
2022-11-21T09:59:26.437Z,7.89
2022-11-21T10:29:33.726Z,10.42
2022-11-21T10:59:37.962Z,7.02
2022-11-21T11:29:52.969Z,8.47
2022-11-21T12:00:05.174Z,14.29
2022-11-21T12:30:39.067Z,9.96
2022-11-21T13:00:52.947Z,14.52
2022-11-21T13:30:57.991Z,9.11
2022-11-21T14:01:26.390Z,11.61
2022-11-21T14:31:30.647Z,9.74
2022-11-21T15:01:35.668Z,7.71
2022-11-21T15:31:40.061Z,6.67
2022-11-21T16:01:44.171Z,6.16
2022-11-21T16:31:51.171Z,5.70
2022-11-21T17:01:55.335Z,5.56
2022-11-21T17:31:59.504Z,5.49
2022-11-21T18:02:03.808Z,5.21
2022-11-21T18:32:08.162Z,5.28
2022-11-21T19:02:12.484Z,5.40
2022-11-21T19:32:16.861Z,5.32
2022-11-21T20:02:22.354Z,5.40
2022-11-21T20:32:28.346Z,5.52
2022-11-21T21:02:33.308Z,5.34
2022-11-21T21:32:37.561Z,5.13
2022-11-21T22:02:42.014Z,5.20
2022-11-21T22:32:46.615Z,5.06
2022-11-21T23:02:51.026Z,5.13
2022-11-21T23:32:55.095Z,5.19
